Time;durP1;ratioP1;P1;durP2;ratioP2;P2;SDS_P1;SDS_P2;PMS_P1;PMS_P2;Temp;Humidity;BMP_temperature;BMP_pressure;BME280_temperature;BME280_humidity;BME280_pressure;Samples;Min_cycle;Max_cycle;Signal;HPM_P1;HPM_P2
2023/03/20 00:02:23;;;;;;;0.87;0.87;;;;;;;7.67;95.83;95759.94;6046899;23;20231;-82
2023/03/20 00:04:48;;;;;;;1.27;0.90;;;;;;;7.67;95.74;95773.66;6069926;23;20251;-81
2023/03/20 00:07:14;;;;;;;1.10;1.00;;;;;;;7.74;95.36;95763.66;6069498;23;20553;-82
2023/03/20 00:09:39;;;;;;;2.03;1.00;;;;;;;7.69;95.10;95767.59;6046653;23;20481;-80
2023/03/20 00:12:05;;;;;;;0.87;0.73;;;;;;;7.50;96.68;95763.88;6070436;23;20155;-81
2023/03/20 00:14:30;;;;;;;0.73;0.73;;;;;;;7.55;96.53;95761.75;6070451;23;20177;-81
2023/03/20 00:16:56;;;;;;;0.87;0.87;;;;;;;7.51;96.34;95765.53;6069573;23;20176;-81
2023/03/20 00:19:24;;;;;;;1.37;1.10;;;;;;;7.46;97.57;95772.00;6046553;23;20165;-81
2023/03/20 00:21:51;;;;;;;0.90;0.90;;;;;;;7.50;97.71;95769.03;6070827;23;20541;-81
2023/03/20 00:24:16;;;;;;;1.17;1.07;;;;;;;7.71;96.54;95770.84;6047716;23;20181;-81
2023/03/20 00:26:43;;;;;;;0.80;0.80;;;;;;;7.76;95.44;95773.88;6047422;23;20267;-81
2023/03/20 00:29:15;;;;;;;1.33;0.90;;;;;;;7.70;96.15;95779.56;6048393;23;20155;-81
2023/03/20 00:31:41;;;;;;;0.80;0.80;;;;;;;7.70;96.10;95779.56;6072593;23;20581;-81
2023/03/20 00:34:11;;;;;;;1.00;0.90;;;;;;;7.58;97.47;95777.00;6072062;23;20607;-81
2023/03/20 00:36:37;;;;;;;1.10;1.00;;;;;;;7.65;96.56;95777.34;6047197;23;20177;-82
2023/03/20 00:39:03;;;;;;;1.80;1.03;;;;;;;7.58;97.31;95782.16;6048021;23;20192;-81
2023/03/20 00:41:30;;;;;;;0.90;0.77;;;;;;;7.69;95.86;95777.94;6048207;23;20203;-81
2023/03/20 00:44:00;;;;;;;1.43;0.83;;;;;;;7.78;95.97;95785.75;6096061;23;20261;-81
2023/03/20 00:46:25;;;;;;;0.60;0.60;;;;;;;7.76;94.94;95779.84;6070882;23;20169;-80
2023/03/20 00:48:51;;;;;;;0.70;0.60;;;;;;;7.71;95.65;95781.19;6072228;23;20279;-82
2023/03/20 00:51:17;;;;;;;0.83;0.80;;;;;;;7.75;95.63;95780.00;6072187;23;20159;-80
2023/03/20 00:53:42;;;;;;;0.87;0.70;;;;;;;7.67;95.53;95783.19;6071755;23;20164;-82
2023/03/20 00:56:30;;;;;;;0.77;0.70;;;;;;;7.70;95.76;95771.81;6070940;23;20163;-80
2023/03/20 00:58:56;;;;;;;1.17;0.63;;;;;;;7.75;94.79;95775.63;6047494;23;20169;-80
2023/03/20 01:01:22;;;;;;;0.83;0.80;;;;;;;7.69;95.39;95772.75;6071131;23;20217;-80
2023/03/20 01:03:47;;;;;;;1.90;0.70;;;;;;;7.81;94.74;95777.72;6047307;23;20191;-82
2023/03/20 01:06:12;;;;;;;0.60;0.60;;;;;;;7.85;94.30;95779.09;6046791;23;20168;-81
2023/03/20 01:08:38;;;;;;;0.60;0.60;;;;;;;7.84;94.21;95777.47;6047227;23;20181;-81
2023/03/20 01:11:03;;;;;;;1.17;0.60;;;;;;;7.89;94.36;95782.28;6048234;23;20543;-82
2023/03/20 01:13:29;;;;;;;0.60;0.60;;;;;;;7.80;94.34;95775.28;6071813;23;20141;-81
2023/03/20 01:15:56;;;;;;;0.53;0.53;;;;;;;7.71;94.63;95773.44;6046130;23;20262;-82
2023/03/20 01:18:23;;;;;;;0.63;0.63;;;;;;;7.77;94.59;95775.50;6047974;23;20187;-81
2023/03/20 01:20:49;;;;;;;0.70;0.70;;;;;;;7.79;94.32;95783.97;6047578;23;20607;-81
2023/03/20 01:23:15;;;;;;;1.33;0.70;;;;;;;7.82;94.27;95778.56;6048271;23;20214;-82
2023/03/20 01:25:40;;;;;;;1.60;0.70;;;;;;;7.88;93.93;95778.88;6097783;23;20152;-81
2023/03/20 01:28:20;;;;;;;0.97;0.70;;;;;;;7.97;93.47;95784.25;6071822;23;20188;-82
2023/03/20 01:30:46;;;;;;;1.20;0.80;;;;;;;7.93;93.25;95781.06;6072194;23;20615;-83
2023/03/20 01:33:17;;;;;;;0.80;0.80;;;;;;;7.94;93.80;95780.13;6072168;23;20216;-80
2023/03/20 01:35:43;;;;;;;1.27;1.00;;;;;;;7.93;93.52;95781.06;6071601;23;20187;-82
2023/03/20 01:38:14;;;;;;;1.30;1.20;;;;;;;7.90;93.84;95783.94;6071813;23;20208;-82
2023/03/20 01:40:47;;;;;;;1.20;1.00;;;;;;;7.98;93.49;95778.94;6072519;23;20584;-82
2023/03/20 01:43:17;;;;;;;1.30;0.93;;;;;;;7.98;93.29;95778.94;6095589;23;20144;-81
2023/03/20 01:45:56;;;;;;;1.17;1.07;;;;;;;8.00;93.00;95781.41;6070885;23;20164;-81
2023/03/20 01:48:22;;;;;;;1.97;1.13;;;;;;;7.99;93.50;95788.34;6047394;23;20631;-81
2023/03/20 01:50:48;;;;;;;2.67;1.40;;;;;;;7.95;93.19;95784.34;6071522;23;20168;-80
2023/03/20 01:53:21;;;;;;;1.30;1.20;;;;;;;7.93;93.34;95792.25;6071933;23;20148;-81
2023/03/20 01:55:47;;;;;;;1.50;1.20;;;;;;;7.99;93.23;95790.94;6046821;23;20224;-81
2023/03/20 01:58:19;;;;;;;2.47;1.33;;;;;;;7.94;93.30;95787.88;6046975;23;20941;-80
2023/03/20 02:00:47;;;;;;;1.77;1.67;;;;;;;7.98;93.23;95793.66;6071553;23;20145;-81
2023/03/20 02:03:12;;;;;;;2.17;1.30;;;;;;;7.86;93.80;95792.84;6046806;23;20161;-80
2023/03/20 02:05:38;;;;;;;1.70;1.60;;;;;;;7.94;93.39;95803.41;6070127;23;20626;-80
2023/03/20 02:08:17;;;;;;;2.23;1.30;;;;;;;7.95;93.39;95799.88;6070724;23;20173;-82
2023/03/20 02:10:44;;;;;;;1.47;1.30;;;;;;;7.91;93.50;95803.66;6070849;23;20151;-80
2023/03/20 02:13:10;;;;;;;1.60;1.50;;;;;;;7.97;93.10;95797.19;6070278;23;20179;-80
2023/03/20 02:15:35;;;;;;;1.70;1.47;;;;;;;7.99;93.00;95805.63;6044965;23;20643;-80
2023/03/20 02:18:01;;;;;;;1.73;1.60;;;;;;;7.93;92.94;95794.81;6046455;23;20599;-80
2023/03/20 02:20:32;;;;;;;1.67;1.57;;;;;;;7.95;93.34;95807.63;6046372;23;20195;-82
2023/03/20 02:23:28;;;;;;;1.50;1.40;;;;;;;7.94;92.70;95803.41;6094050;23;20227;-80
2023/03/20 02:26:16;;;;;;;2.80;1.40;;;;;;;7.91;93.03;95804.47;6095205;23;20165;-81
2023/03/20 02:29:07;;;;;;;1.27;1.17;;;;;;;7.94;92.80;95806.81;6094159;23;20179;-80
2023/03/20 02:32:10;;;;;;;2.00;1.80;;;;;;;7.92;92.64;95807.88;6046107;23;20599;-80
2023/03/20 02:35:20;;;;;;;1.93;1.70;;;;;;;7.92;92.86;95813.06;6095066;23;20224;-83
2023/03/20 02:38:15;;;;;;;1.60;1.50;;;;;;;7.90;93.26;95814.94;6008204;23;20201;-82
2023/03/20 02:41:02;;;;;;;1.30;1.20;;;;;;;7.89;93.22;95806.38;6007420;23;20147;-81
2023/03/20 02:43:58;;;;;;;1.67;1.37;;;;;;;7.87;93.26;95807.44;6006910;23;20182;-81
2023/03/20 02:46:29;;;;;;;2.03;1.60;;;;;;;7.85;93.33;95810.13;6007204;23;20221;-81
2023/03/20 02:49:00;;;;;;;1.50;1.40;;;;;;;7.83;93.17;95806.88;6008188;23;20610;-82
2023/03/20 02:51:35;;;;;;;1.97;1.73;;;;;;;7.83;93.68;95806.03;6008146;23;20174;-80
2023/03/20 02:54:12;;;;;;;3.27;1.50;;;;;;;7.82;93.31;95807.00;5984054;23;20165;-81
2023/03/20 02:56:50;;;;;;;1.70;1.57;;;;;;;7.82;93.82;95812.97;5983164;23;20185;-80
2023/03/20 02:59:25;;;;;;;2.80;2.03;;;;;;;7.77;94.22;95809.13;5984016;23;20146;-81
2023/03/20 03:01:53;;;;;;;1.60;1.50;;;;;;;7.78;93.99;95816.78;5960127;23;20165;-81
2023/03/20 03:04:22;;;;;;;2.13;1.50;;;;;;;7.72;94.35;95822.44;5983351;23;20183;-81
2023/03/20 03:06:50;;;;;;;1.70;1.60;;;;;;;7.69;94.57;95814.13;5959096;23;20186;-82
2023/03/20 03:09:34;;;;;;;1.70;1.47;;;;;;;7.59;95.08;95817.41;5959679;23;20170;-82
2023/03/20 03:12:04;;;;;;;1.80;1.63;;;;;;;7.61;95.10;95815.53;5983058;23;20675;-82
2023/03/20 03:14:40;;;;;;;2.07;1.73;;;;;;;7.62;94.98;95819.75;6037364;23;20534;-86
2023/03/20 03:17:07;;;;;;;1.80;1.50;;;;;;;7.62;95.19;95812.00;6069507;23;20582;-84
2023/03/20 03:19:35;;;;;;;1.60;1.50;;;;;;;7.53;95.63;95817.91;6069321;23;20164;-83
2023/03/20 03:22:01;;;;;;;1.83;1.60;;;;;;;7.55;95.91;95816.03;6069956;23;20156;-82
2023/03/20 03:24:30;;;;;;;3.87;1.57;;;;;;;7.55;95.56;95825.53;6045346;23;20176;-83
2023/03/20 03:26:58;;;;;;;3.00;1.80;;;;;;;7.55;95.62;95822.97;6044802;23;20200;-83
2023/03/20 03:29:25;;;;;;;2.00;1.60;;;;;;;7.56;95.23;95824.59;6069684;23;20141;-82
2023/03/20 03:31:50;;;;;;;1.97;1.87;;;;;;;7.51;95.46;95826.72;6069866;23;20212;-82
2023/03/20 03:34:18;;;;;;;1.70;1.60;;;;;;;7.48;95.33;95827.78;6069448;23;20153;-83
2023/03/20 03:36:51;;;;;;;1.70;1.40;;;;;;;7.48;95.56;95821.78;6044628;23;20180;-82
2023/03/20 03:39:39;;;;;;;1.60;1.47;;;;;;;7.46;94.97;95826.28;6093125;23;20160;-82
2023/03/20 03:42:26;;;;;;;2.00;1.50;;;;;;;7.45;95.03;95829.81;6069961;23;20531;-82
2023/03/20 03:45:03;;;;;;;1.87;1.73;;;;;;;7.37;95.38;95835.56;6044966;23;20184;-81
2023/03/20 03:47:43;;;;;;;2.43;1.90;;;;;;;7.36;95.50;95837.34;6093358;23;20188;-81
2023/03/20 03:50:27;;;;;;;2.60;2.00;;;;;;;7.39;95.76;95836.25;6069403;23;20211;-81
2023/03/20 03:52:53;;;;;;;1.87;1.77;;;;;;;7.40;95.69;95840.50;6069858;23;20153;-82
2023/03/20 03:55:21;;;;;;;4.33;1.93;;;;;;;7.42;95.42;95840.34;6068926;23;20638;-82
2023/03/20 03:57:59;;;;;;;2.77;2.13;;;;;;;7.42;95.37;95845.53;6047585;23;20251;-82
2023/03/20 04:00:26;;;;;;;3.50;2.60;;;;;;;7.41;95.26;95843.88;6047336;23;20502;-81
2023/03/20 04:02:55;;;;;;;2.60;2.37;;;;;;;7.33;95.63;95842.75;6047693;23;20242;-82
2023/03/20 04:05:21;;;;;;;2.77;2.20;;;;;;;7.33;95.31;95839.31;6070508;23;20196;-82
2023/03/20 04:07:52;;;;;;;4.47;3.00;;;;;;;7.25;96.70;95842.53;6071190;23;20651;-82
2023/03/20 04:10:17;;;;;;;3.17;2.80;;;;;;;7.26;96.21;95839.00;6070969;23;20161;-82
2023/03/20 04:12:44;;;;;;;2.80;2.60;;;;;;;7.29;95.92;95838.75;6071241;23;20666;-82
2023/03/20 04:15:10;;;;;;;3.13;2.40;;;;;;;7.13;96.05;95822.81;6070029;23;20188;-81
2023/03/20 04:17:35;;;;;;;2.90;2.60;;;;;;;7.14;96.45;95816.69;6047459;23;20650;-81
2023/03/20 04:20:02;;;;;;;3.07;2.50;;;;;;;7.18;95.35;95822.47;6047452;23;20156;-82
2023/03/20 04:22:27;;;;;;;3.10;2.00;;;;;;;7.15;95.42;95823.50;6047429;23;20160;-82
2023/03/20 04:24:52;;;;;;;2.60;2.40;;;;;;;7.21;94.99;95823.03;6046208;23;20240;-82
2023/03/20 04:27:18;;;;;;;2.73;2.30;;;;;;;7.25;94.63;95826.22;6070995;23;20199;-81
2023/03/20 04:29:43;;;;;;;3.77;2.00;;;;;;;7.12;94.78;95835.84;6071136;23;20157;-82
2023/03/20 04:32:09;;;;;;;2.40;2.20;;;;;;;7.06;96.12;95831.97;6071233;23;20160;-82
2023/03/20 04:34:34;;;;;;;2.53;2.00;;;;;;;7.09;95.57;95837.72;6094846;23;20555;-81
2023/03/20 04:37:00;;;;;;;2.37;2.17;;;;;;;7.13;95.37;95837.47;6070973;23;20181;-82
2023/03/20 04:39:26;;;;;;;2.93;2.00;;;;;;;7.03;96.08;95847.72;6094665;23;20160;-83
2023/03/20 04:41:51;;;;;;;2.53;2.17;;;;;;;7.16;95.35;95852.75;6071220;23;20160;-82
2023/03/20 04:44:17;;;;;;;2.40;2.10;;;;;;;7.14;95.78;95849.44;6070643;23;20179;-81
2023/03/20 04:46:42;;;;;;;4.20;2.00;;;;;;;7.12;95.36;95848.75;6070631;23;20255;-80
2023/03/20 04:49:07;;;;;;;2.20;1.87;;;;;;;7.16;95.12;95837.28;6046627;23;20157;-82
2023/03/20 04:51:32;;;;;;;2.53;1.80;;;;;;;7.16;95.38;95847.59;6047237;23;20179;-83
2023/03/20 04:53:58;;;;;;;2.10;1.67;;;;;;;7.18;95.04;95843.13;6071242;23;20161;-80
2023/03/20 04:56:23;;;;;;;2.10;1.90;;;;;;;7.23;94.72;95846.97;6070923;23;20160;-81
2023/03/20 04:58:48;;;;;;;2.50;2.00;;;;;;;7.27;94.75;95850.97;6071922;23;20219;-81
2023/03/20 05:01:14;;;;;;;2.40;2.20;;;;;;;7.30;94.57;95855.06;6048598;23;20172;-80
2023/03/20 05:03:39;;;;;;;2.27;1.93;;;;;;;7.30;94.63;95860.25;6072499;23;20252;-81
2023/03/20 05:06:05;;;;;;;2.30;2.10;;;;;;;7.33;94.82;95862.56;6047472;23;20164;-82
2023/03/20 05:08:30;;;;;;;3.13;2.00;;;;;;;7.27;95.03;95852.75;6097652;23;20172;-81
2023/03/20 05:10:56;;;;;;;3.67;1.97;;;;;;;7.35;94.67;95852.97;6094825;23;20157;-81
2023/03/20 05:13:21;;;;;;;2.13;1.93;;;;;;;7.41;94.40;95846.47;6071021;23;20195;-80
2023/03/20 05:15:46;;;;;;;2.13;1.93;;;;;;;7.42;94.23;95846.38;6046053;23;20607;-81
2023/03/20 05:18:12;;;;;;;2.23;1.70;;;;;;;7.45;93.95;95840.97;6070597;23;20176;-80
2023/03/20 05:20:37;;;;;;;2.47;2.07;;;;;;;7.47;94.30;95851.16;6097183;23;20216;-82
2023/03/20 05:23:03;;;;;;;1.77;1.67;;;;;;;7.48;93.80;95845.88;6071689;23;20225;-81
2023/03/20 05:25:28;;;;;;;2.27;2.00;;;;;;;7.50;93.61;95843.97;6046853;23;20657;-83
2023/03/20 05:27:53;;;;;;;2.50;2.30;;;;;;;7.50;93.82;95845.75;6072759;23;20253;-81
2023/03/20 05:30:19;;;;;;;2.30;2.10;;;;;;;7.55;93.68;95841.06;6081390;23;20153;-81
2023/03/20 05:32:45;;;;;;;2.53;2.20;;;;;;;7.56;93.92;95859.00;6085785;23;20199;-82
2023/03/20 05:35:11;;;;;;;2.40;2.20;;;;;;;7.56;93.70;95860.78;6088306;23;20184;-83
2023/03/20 05:37:37;;;;;;;2.30;2.10;;;;;;;7.60;93.71;95868.19;6088098;23;20245;-82
2023/03/20 05:40:03;;;;;;;2.20;2.00;;;;;;;7.60;93.53;95872.53;6088585;23;20174;-82
2023/03/20 05:42:28;;;;;;;3.03;2.33;;;;;;;7.62;93.59;95879.22;6088792;23;20185;-81
2023/03/20 05:44:54;;;;;;;2.50;2.20;;;;;;;7.60;93.37;95868.19;6088496;23;20184;-83
2023/03/20 05:47:19;;;;;;;2.70;2.13;;;;;;;7.62;93.29;95870.63;6112219;23;20187;-82
2023/03/20 05:49:44;;;;;;;2.43;2.23;;;;;;;7.59;93.28;95871.69;6093814;23;20167;-83
2023/03/20 05:52:10;;;;;;;2.77;2.10;;;;;;;7.64;93.59;95871.34;6070154;23;20144;-83
2023/03/20 05:54:35;;;;;;;2.70;2.50;;;;;;;7.65;93.51;95883.31;6093622;23;20163;-85
2023/03/20 05:57:00;;;;;;;4.90;3.60;;;;;;;7.61;94.04;95876.75;6094259;23;20172;-82
2023/03/20 05:59:26;;;;;;;4.20;3.30;;;;;;;7.61;93.93;95869.81;6094401;23;20152;-82
2023/03/20 06:01:51;;;;;;;3.30;3.00;;;;;;;7.74;93.27;95871.41;6094554;23;20159;-82
2023/03/20 06:04:16;;;;;;;10.53;7.10;;;;;;;7.72;93.38;95879.31;6068675;23;20286;-83
2023/03/20 06:06:41;;;;;;;10.67;7.17;;;;;;;7.80;93.44;95878.69;6068186;23;20184;-81
2023/03/20 06:09:07;;;;;;;14.90;10.87;;;;;;;7.77;93.21;95878.91;6068868;23;20137;-83
2023/03/20 06:11:32;;;;;;;8.43;6.33;;;;;;;7.81;92.93;95881.16;6093755;23;20209;-82
2023/03/20 06:13:58;;;;;;;7.57;5.60;;;;;;;7.84;93.56;95880.06;6089559;23;20177;-83
2023/03/20 06:16:23;;;;;;;6.33;5.00;;;;;;;7.91;93.35;95886.41;6092092;23;20160;-83
2023/03/20 06:18:49;;;;;;;6.73;5.10;;;;;;;7.89;93.78;95883.13;6092179;23;20205;-82
2023/03/20 06:21:14;;;;;;;4.70;3.93;;;;;;;7.91;93.02;95874.28;6068030;23;20168;-82
2023/03/20 06:23:40;;;;;;;2.63;2.10;;;;;;;8.02;92.33;95862.25;6069113;23;20184;-82
2023/03/20 06:26:05;;;;;;;2.53;2.27;;;;;;;8.22;91.89;95864.88;6116402;23;20160;-83
2023/03/20 06:28:31;;;;;;;2.50;2.30;;;;;;;8.25;90.95;95866.41;6090690;23;20181;-82
2023/03/20 06:30:56;;;;;;;2.97;2.30;;;;;;;8.15;90.48;95873.28;6068478;23;20188;-81
2023/03/20 06:33:21;;;;;;;2.30;2.10;;;;;;;8.29;90.54;95879.88;6065979;23;20175;-84
2023/03/20 06:35:47;;;;;;;2.93;2.30;;;;;;;8.43;88.87;95870.09;6089827;23;20161;-82
2023/03/20 06:38:12;;;;;;;2.40;2.20;;;;;;;8.70;87.28;95866.97;6090604;23;20177;-83
2023/03/20 06:40:38;;;;;;;2.77;2.13;;;;;;;8.93;87.00;95870.25;6107344;23;20549;-84
2023/03/20 06:43:04;;;;;;;2.43;2.23;;;;;;;9.14;85.77;95875.34;6075250;23;20159;-83
2023/03/20 06:45:29;;;;;;;2.77;1.90;;;;;;;9.12;84.71;95879.84;6072743;23;20179;-84
2023/03/20 06:47:54;;;;;;;2.70;1.90;;;;;;;9.20;85.10;95887.81;6071771;23;20208;-83
2023/03/20 06:50:20;;;;;;;1.93;1.83;;;;;;;9.49;84.79;95881.88;6047963;23;20160;-84
2023/03/20 06:52:45;;;;;;;1.90;1.80;;;;;;;9.60;82.35;95890.34;6072045;23;20161;-82
2023/03/20 06:55:11;;;;;;;1.73;1.50;;;;;;;9.60;81.56;95895.53;6071228;23;20153;-83
2023/03/20 06:57:36;;;;;;;1.50;1.40;;;;;;;9.48;82.58;95904.41;6048112;23;20550;-82
2023/03/20 07:00:04;;;;;;;1.80;1.70;;;;;;;9.64;82.62;95917.69;6071284;23;20160;-82
2023/03/20 07:02:29;;;;;;;2.10;1.50;;;;;;;9.62;82.09;95926.53;6047272;23;20265;-80
2023/03/20 07:04:55;;;;;;;3.23;1.80;;;;;;;9.44;81.63;95915.97;6098178;23;20654;-82
2023/03/20 07:07:20;;;;;;;2.00;1.80;;;;;;;9.20;83.33;95921.50;6072827;23;20184;-83
2023/03/20 07:09:45;;;;;;;2.83;2.03;;;;;;;9.27;83.88;95920.00;6048121;23;20160;-81
2023/03/20 07:12:13;;;;;;;2.70;2.10;;;;;;;9.06;84.99;95914.88;6047547;23;20288;-81
2023/03/20 07:14:40;;;;;;;3.83;3.53;;;;;;;9.16;84.49;95922.69;6072232;23;20160;-82
2023/03/20 07:17:06;;;;;;;4.33;3.40;;;;;;;8.95;83.74;95920.13;6047873;23;20180;-81
2023/03/20 07:19:31;;;;;;;3.40;3.10;;;;;;;9.11;84.06;95922.28;6071491;23;20380;-82
2023/03/20 07:22:00;;;;;;;3.30;3.00;;;;;;;9.21;84.63;95927.50;6047015;23;20223;-83
2023/03/20 07:24:26;;;;;;;4.27;3.60;;;;;;;9.28;83.89;95926.84;6071700;23;20520;-82
2023/03/20 07:26:51;;;;;;;3.60;3.30;;;;;;;9.33;83.48;95932.44;6071266;23;20275;-82
2023/03/20 07:29:19;;;;;;;4.93;3.03;;;;;;;9.40;83.34;95921.56;6047083;23;20164;-82
2023/03/20 07:31:44;;;;;;;4.03;3.63;;;;;;;9.58;83.45;95925.97;6047878;23;20148;-82
2023/03/20 07:34:11;;;;;;;3.57;3.00;;;;;;;9.87;82.70;95928.63;6072645;23;20161;-83
2023/03/20 07:36:36;;;;;;;4.70;2.83;;;;;;;10.13;80.71;95926.34;6047685;23;20157;-83
2023/03/20 07:39:01;;;;;;;4.03;2.87;;;;;;;10.26;79.61;95925.31;6095944;23;20168;-82
2023/03/20 07:41:27;;;;;;;4.60;3.40;;;;;;;10.40;79.30;95920.50;6048175;23;20149;-83
2023/03/20 07:43:52;;;;;;;4.00;3.60;;;;;;;10.62;77.38;95923.78;6048169;23;20215;-82
2023/03/20 07:46:17;;;;;;;3.40;2.87;;;;;;;10.61;76.32;95928.16;6071018;23;20621;-82
2023/03/20 07:48:43;;;;;;;3.80;3.37;;;;;;;10.62;77.62;95922.00;6049005;23;20219;-83
2023/03/20 07:51:08;;;;;;;3.77;3.40;;;;;;;10.81;76.29;95926.34;6050932;23;20165;-82
2023/03/20 07:53:33;;;;;;;6.90;3.90;;;;;;;10.70;74.84;95927.34;6079920;23;20189;-83
2023/03/20 07:55:59;;;;;;;4.73;3.80;;;;;;;10.77;75.91;95927.56;6115630;23;20191;-83
2023/03/20 07:58:24;;;;;;;3.50;3.10;;;;;;;10.74;75.42;95935.66;6091393;23;20176;-83
2023/03/20 08:00:49;;;;;;;3.67;3.37;;;;;;;10.61;76.00;95937.75;6052460;23;20536;-82
2023/03/20 08:03:15;;;;;;;4.33;3.93;;;;;;;10.33;75.61;95929.78;6045758;23;20494;-84
2023/03/20 08:05:40;;;;;;;4.57;4.07;;;;;;;10.27;76.17;95927.75;6066853;23;20184;-83
2023/03/20 08:08:06;;;;;;;4.30;3.70;;;;;;;10.22;76.95;95932.53;6070192;23;20625;-84
2023/03/20 08:10:33;;;;;;;4.37;3.97;;;;;;;10.38;75.83;95926.81;6046879;23;20145;-83
2023/03/20 08:12:58;;;;;;;4.27;3.87;;;;;;;9.96;76.12;95921.00;6070015;23;20153;-84
2023/03/20 08:15:24;;;;;;;5.20;3.80;;;;;;;10.20;76.34;95921.44;6069311;23;20215;-83
2023/03/20 08:17:49;;;;;;;4.87;4.40;;;;;;;10.26;75.35;95923.53;6046480;23;20658;-83
2023/03/20 08:20:15;;;;;;;4.93;4.17;;;;;;;10.29;75.38;95925.03;6046758;23;20161;-82
2023/03/20 08:22:41;;;;;;;4.43;3.80;;;;;;;10.22;74.93;95922.16;6070348;23;20188;-83
2023/03/20 08:25:08;;;;;;;5.83;4.03;;;;;;;10.24;74.62;95925.44;6071728;23;20185;-83
2023/03/20 08:27:34;;;;;;;4.50;4.07;;;;;;;10.37;74.94;95919.97;6074635;23;20212;-83
2023/03/20 08:29:59;;;;;;;8.10;4.60;;;;;;;10.25;75.00;95927.09;6112110;23;20141;-84
2023/03/20 08:32:25;;;;;;;4.50;3.97;;;;;;;9.93;76.07;95919.50;6071718;23;20165;-83
2023/03/20 08:34:51;;;;;;;4.67;4.13;;;;;;;10.20;75.66;95926.63;6066839;23;20175;-84
2023/03/20 08:37:16;;;;;;;5.07;4.33;;;;;;;10.41;74.57;95932.53;6078712;23;20203;-83
2023/03/20 08:39:49;;;;;;;4.13;3.73;;;;;;;10.25;74.81;95928.84;6071423;23;20156;-83
2023/03/20 08:42:14;;;;;;;5.27;4.20;;;;;;;9.98;75.55;95937.25;6100457;23;20152;-84
2023/03/20 08:44:40;;;;;;;5.47;3.87;;;;;;;10.39;74.70;95942.25;6096557;23;20192;-84
2023/03/20 08:47:06;;;;;;;5.00;4.03;;;;;;;10.49;74.46;95935.25;6072978;23;20192;-82
2023/03/20 08:49:32;;;;;;;5.20;4.10;;;;;;;10.73;74.25;95937.44;6054307;23;20239;-81
2023/03/20 08:51:58;;;;;;;4.60;3.80;;;;;;;11.18;73.90;95941.16;6073917;23;20152;-81
2023/03/20 08:54:24;;;;;;;5.80;4.17;;;;;;;11.48;72.68;95940.91;6048521;23;20515;-81
2023/03/20 08:56:49;;;;;;;4.80;3.70;;;;;;;11.78;71.75;95939.81;6044729;23;20180;-81
2023/03/20 08:59:15;;;;;;;4.13;3.37;;;;;;;11.98;70.36;95939.75;6072039;23;20161;-82
2023/03/20 09:01:40;;;;;;;5.20;3.33;;;;;;;12.02;69.25;95939.31;6072969;23;20228;-81
2023/03/20 09:04:06;;;;;;;4.10;3.70;;;;;;;12.22;69.07;95947.00;6046811;23;20211;-80
2023/03/20 09:06:35;;;;;;;5.63;3.90;;;;;;;12.23;67.34;95946.84;6046222;23;20614;-81
2023/03/20 09:09:00;;;;;;;4.77;3.63;;;;;;;12.45;66.74;95941.16;6065494;23;20157;-82
2023/03/20 09:11:25;;;;;;;4.00;3.60;;;;;;;12.47;66.57;95935.84;6068738;23;20152;-82
2023/03/20 09:13:52;;;;;;;4.97;3.90;;;;;;;12.47;64.03;95938.44;6069453;23;20149;-82
2023/03/20 09:16:17;;;;;;;4.10;3.33;;;;;;;11.85;67.00;95946.13;6068097;23;20261;-81
2023/03/20 09:18:43;;;;;;;4.07;3.40;;;;;;;12.56;66.72;95945.34;6046851;23;20196;-81
2023/03/20 09:21:08;;;;;;;4.17;3.30;;;;;;;12.43;63.70;95944.91;6070452;23;20168;-82
2023/03/20 09:23:35;;;;;;;3.97;3.47;;;;;;;12.64;63.37;95939.41;6072049;23;20168;-81
2023/03/20 09:26:00;;;;;;;4.37;3.70;;;;;;;12.94;62.92;95938.97;6069733;23;20177;-82
2023/03/20 09:28:26;;;;;;;4.20;3.03;;;;;;;13.11;63.17;95939.06;6069269;23;20198;-83
2023/03/20 09:30:58;;;;;;;3.70;3.30;;;;;;;13.31;60.36;95945.72;6045779;23;20474;-81
2023/03/20 09:33:23;;;;;;;4.17;3.77;;;;;;;12.95;59.82;95943.19;6096377;23;20212;-82
2023/03/20 09:35:49;;;;;;;4.40;3.53;;;;;;;13.20;61.84;95948.63;6070603;23;20180;-83
2023/03/20 09:38:15;;;;;;;3.33;3.00;;;;;;;12.96;60.63;95962.25;6071517;23;20191;-83
2023/03/20 09:40:55;;;;;;;4.27;3.20;;;;;;;12.72;61.42;95961.13;6071430;23;20611;-83
2023/03/20 09:43:54;;;;;;;3.97;3.37;;;;;;;12.70;60.94;95957.84;6095530;23;20216;-82
2023/03/20 09:46:22;;;;;;;3.40;2.97;;;;;;;12.49;61.52;95962.53;6094219;23;20224;-81
2023/03/20 09:49:09;;;;;;;3.50;3.20;;;;;;;12.45;62.40;95971.59;6096313;23;20530;-82
2023/03/20 09:51:44;;;;;;;4.10;3.30;;;;;;;12.37;62.86;95967.16;6095457;23;20530;-82
2023/03/20 09:54:23;;;;;;;4.30;3.07;;;;;;;12.45;63.60;95966.41;6071343;23;20701;-82
2023/03/20 09:56:50;;;;;;;4.37;3.20;;;;;;;12.33;62.66;95976.22;6047322;23;20184;-83
2023/03/20 09:59:17;;;;;;;4.97;3.50;;;;;;;12.10;63.82;95973.25;6048364;23;20184;-82
2023/03/20 10:02:01;;;;;;;4.40;3.40;;;;;;;12.26;63.82;95980.38;6047440;23;20537;-82
2023/03/20 10:04:28;;;;;;;5.30;3.40;;;;;;;11.91;63.92;95976.75;6097654;23;20227;-83
2023/03/20 10:06:54;;;;;;;6.73;3.83;;;;;;;12.09;64.01;95981.16;6096452;23;20176;-83
2023/03/20 10:09:25;;;;;;;6.53;3.73;;;;;;;12.12;62.86;95975.69;6071803;23;20231;-84
2023/03/20 10:12:24;;;;;;;3.70;3.10;;;;;;;11.97;63.75;95979.75;6070473;23;20233;-83
2023/03/20 10:15:00;;;;;;;5.43;3.40;;;;;;;11.99;63.03;95980.41;6094711;23;20160;-83
2023/03/20 10:17:50;;;;;;;3.47;3.17;;;;;;;11.74;63.65;95974.06;6095099;23;20235;-84
2023/03/20 10:20:24;;;;;;;4.23;3.07;;;;;;;11.91;64.40;95981.13;6048260;23;20539;-82
2023/03/20 10:22:58;;;;;;;5.50;3.30;;;;;;;11.63;63.90;95972.47;6072777;23;20183;-83
2023/03/20 10:25:28;;;;;;;3.97;3.43;;;;;;;11.51;64.06;95974.44;6071086;23;20176;-83
2023/03/20 10:27:59;;;;;;;5.03;3.93;;;;;;;11.45;65.43;95976.78;6094322;23;20192;-84
2023/03/20 10:30:47;;;;;;;5.47;3.83;;;;;;;11.43;65.63;95984.75;6073071;23;20173;-84
2023/03/20 10:33:35;;;;;;;5.43;4.20;;;;;;;11.34;65.50;95967.41;6070660;23;20159;-83
2023/03/20 10:36:07;;;;;;;5.27;4.13;;;;;;;11.42;65.45;95975.31;6094345;23;20156;-81
2023/03/20 10:39:24;;;;;;;4.93;4.10;;;;;;;11.55;65.21;95973.19;6071127;23;20195;-81
2023/03/20 10:41:54;;;;;;;6.73;4.20;;;;;;;11.63;65.52;95965.50;6007615;23;20254;-81
2023/03/20 10:44:29;;;;;;;4.37;3.40;;;;;;;11.39;64.36;95965.16;5985290;23;20193;-81
2023/03/20 10:46:55;;;;;;;4.13;3.37;;;;;;;11.61;64.55;95964.81;5962823;23;20604;-81
2023/03/20 10:49:37;;;;;;;5.37;3.77;;;;;;;11.70;65.55;95967.53;5985849;23;20162;-82
2023/03/20 10:52:09;;;;;;;4.23;3.60;;;;;;;11.83;64.17;95968.03;5984941;23;20204;-84
2023/03/20 10:54:40;;;;;;;4.97;3.57;;;;;;;11.89;64.58;95964.84;5962079;23;20158;-83
2023/03/20 10:57:12;;;;;;;4.77;3.37;;;;;;;12.21;64.44;95960.97;5962186;23;20214;-84
2023/03/20 10:59:43;;;;;;;4.33;3.67;;;;;;;12.05;64.30;95966.81;5983759;23;20151;-82
2023/03/20 11:02:15;;;;;;;4.73;3.97;;;;;;;12.02;63.90;95965.34;5984660;23;20234;-83
2023/03/20 11:04:41;;;;;;;5.70;4.60;;;;;;;11.81;63.74;95956.94;5960209;23;20178;-84
2023/03/20 11:07:22;;;;;;;6.60;3.87;;;;;;;11.90;62.75;95967.31;5961494;23;20201;-83
2023/03/20 11:10:09;;;;;;;3.67;3.23;;;;;;;11.79;63.84;95967.47;5962467;23;20170;-84
2023/03/20 11:12:40;;;;;;;7.90;4.23;;;;;;;12.47;62.85;95949.69;5982752;23;20170;-80
2023/03/20 11:15:21;;;;;;;4.50;4.03;;;;;;;12.47;61.57;95954.06;5959066;23;20155;-81
2023/03/20 11:18:09;;;;;;;4.33;3.20;;;;;;;12.53;60.83;95956.06;6074579;23;20247;-82
2023/03/20 11:20:44;;;;;;;5.47;3.23;;;;;;;12.53;60.75;95950.03;6069985;23;20163;-81
2023/03/20 11:23:15;;;;;;;5.27;3.33;;;;;;;12.58;61.40;95951.22;6069315;23;20151;-80
2023/03/20 11:26:02;;;;;;;3.40;2.93;;;;;;;12.89;59.42;95959.44;6068107;23;20168;-78
2023/03/20 11:28:39;;;;;;;4.23;3.13;;;;;;;13.18;58.87;95960.97;6069495;23;20670;-80
2023/03/20 11:31:13;;;;;;;5.50;3.40;;;;;;;13.30;58.94;95955.34;6069997;23;20296;-79
2023/03/20 11:34:03;;;;;;;5.83;3.93;;;;;;;13.58;57.27;95958.59;6069359;23;20167;-79
2023/03/20 11:36:30;;;;;;;6.37;5.50;;;;;;;12.77;57.25;95952.84;6068496;23;20160;-81
2023/03/20 11:39:26;;;;;;;8.13;6.67;;;;;;;13.06;58.87;95962.97;6069664;23;20165;-80
2023/03/20 11:41:53;;;;;;;4.57;3.50;;;;;;;12.95;58.31;95952.81;6051827;23;20160;-80
2023/03/20 11:44:29;;;;;;;3.70;3.27;;;;;;;13.39;57.82;95955.41;6069195;23;20247;-77
2023/03/20 11:47:00;;;;;;;3.57;2.87;;;;;;;13.25;57.08;95952.41;6068629;23;20573;-76
2023/03/20 11:49:29;;;;;;;3.93;3.17;;;;;;;13.32;58.29;95948.19;6070924;23;20137;-78
2023/03/20 11:52:11;;;;;;;4.87;3.03;;;;;;;13.46;56.38;95948.59;6069149;23;20148;-77